createdAt,value
2019-04-06T00:00:05.423Z,96777.28
2019-04-06T00:01:10.692Z,96784.33
2019-04-06T00:02:21.600Z,96781.09
2019-04-06T00:03:25.321Z,96783.77
2019-04-06T00:04:28.953Z,96788.25
2019-04-06T00:05:32.640Z,96786.91
2019-04-06T00:06:36.256Z,96780.66
2019-04-06T00:07:39.897Z,96783.33
2019-04-06T00:08:43.471Z,96779.07
2019-04-06T00:09:47.603Z,96781.99
2019-04-06T00:10:51.280Z,96774.28
2019-04-06T00:11:54.907Z,96776.18
2019-04-06T00:12:58.634Z,96772.61
2019-04-06T00:14:02.285Z,96772.61
2019-04-06T00:15:07.556Z,96778.64
2019-04-06T00:16:11.304Z,96778.64
2019-04-06T00:17:14.883Z,96764.77
2019-04-06T00:18:18.464Z,96761.41
2019-04-06T00:19:22.122Z,96761.41
2019-04-06T00:20:25.786Z,96759.95
2019-04-06T00:21:29.481Z,96770.80
2019-04-06T00:22:33.134Z,96770.80
2019-04-06T00:23:36.768Z,96768.47
2019-04-06T00:24:40.389Z,96768.47
2019-04-06T00:25:45.004Z,96759.62
2019-04-06T00:26:48.739Z,96759.62
2019-04-06T00:27:52.455Z,96762.77
2019-04-06T00:28:56.427Z,96759.17
2019-04-06T00:29:59.996Z,96761.99
2019-04-06T00:31:21.426Z,96757.84
2019-04-06T00:32:29.557Z,96760.30
2019-04-06T00:33:33.678Z,96760.30
2019-04-06T00:34:37.730Z,96758.95
2019-04-06T00:35:41.393Z,96749.44
2019-04-06T00:36:45.051Z,96756.38
2019-04-06T00:37:48.726Z,96755.80
2019-04-06T00:38:52.353Z,96755.80
2019-04-06T00:39:55.955Z,96750.90
2019-04-06T00:40:59.625Z,96750.90
2019-04-06T00:42:03.569Z,96754.03
2019-04-06T00:43:07.243Z,96751.34
2019-04-06T00:44:10.897Z,96760.05
2019-04-06T00:45:14.632Z,96760.05
2019-04-06T00:46:18.300Z,96751.21
2019-04-06T00:47:21.978Z,96762.84
2019-04-06T00:48:25.665Z,96762.84
2019-04-06T00:49:29.286Z,96762.73
2019-04-06T00:50:32.868Z,96748.22
2019-04-06T00:51:36.523Z,96763.63
2019-04-06T00:52:40.239Z,96761.86
2019-04-06T00:53:43.936Z,96755.80
2019-04-06T00:54:47.470Z,96755.80
2019-04-06T00:55:55.813Z,96756.83
2019-04-06T00:56:56.494Z,96747.54
2019-04-06T00:58:00.134Z,96747.54
2019-04-06T00:59:03.829Z,96754.94
2019-04-06T01:00:08.923Z,96754.58
2019-04-06T01:01:12.575Z,96754.58
2019-04-06T01:02:16.159Z,96749.33
2019-04-06T01:03:19.803Z,96743.16
2019-04-06T01:04:23.941Z,96762.66
2019-04-06T01:05:27.677Z,96762.66
2019-04-06T01:06:31.304Z,96762.02
2019-04-06T01:07:34.881Z,96765.36
2019-04-06T01:08:38.503Z,96761.36
2019-04-06T01:09:42.153Z,96753.09
2019-04-06T01:10:45.785Z,96753.09
2019-04-06T01:11:49.440Z,96765.27
2019-04-06T01:12:53.162Z,96765.27
2019-04-06T01:13:56.880Z,96753.02
2019-04-06T01:15:00.536Z,96753.02
2019-04-06T01:16:04.363Z,96765.95
2019-04-06T01:17:08.009Z,96756.34
2019-04-06T01:18:12.015Z,96756.34
2019-04-06T01:19:15.586Z,96763.71
2019-04-06T01:20:19.276Z,96763.71
2019-04-06T01:21:23.062Z,96755.97
2019-04-06T01:22:26.798Z,96750.84
2019-04-06T01:23:30.436Z,96754.98
2019-04-06T01:24:34.017Z,96765.03
2019-04-06T01:25:37.767Z,96765.03
2019-04-06T01:26:41.478Z,96762.47
2019-04-06T01:27:46.019Z,96764.03
2019-04-06T01:28:49.682Z,96768.14
2019-04-06T01:29:53.258Z,96767.13
2019-04-06T01:30:56.977Z,96764.01
2019-04-06T01:32:00.570Z,96764.36
2019-04-06T01:33:04.196Z,96767.94
2019-04-06T01:34:07.830Z,96767.94
2019-04-06T01:35:11.481Z,96770.13
2019-04-06T01:36:15.140Z,96770.13
2019-04-06T01:37:18.719Z,96769.69
2019-04-06T01:38:22.356Z,96770.33
2019-04-06T01:39:26.061Z,96760.95
2019-04-06T01:40:30.075Z,96760.95
2019-04-06T01:41:33.667Z,96765.38
2019-04-06T01:42:37.301Z,96765.38
2019-04-06T01:43:40.968Z,96768.98
2019-04-06T01:44:44.605Z,96760.72
2019-04-06T01:45:48.236Z,96760.72
2019-04-06T01:46:51.975Z,96767.88
2019-04-06T01:47:55.622Z,96767.88
2019-04-06T01:48:59.271Z,96771.90
2019-04-06T01:50:02.892Z,96770.56
2019-04-06T01:51:06.962Z,96770.41
2019-04-06T01:52:10.639Z,96769.63
2019-04-06T01:53:14.271Z,96769.63
2019-04-06T01:54:17.909Z,96765.77
2019-04-06T01:55:21.474Z,96765.77
2019-04-06T01:56:25.156Z,96768.92
2019-04-06T01:57:28.844Z,96772.41
2019-04-06T01:58:32.482Z,96776.55
2019-04-06T01:59:36.183Z,96765.57
2019-04-06T02:00:41.481Z,96765.57
2019-04-06T02:01:46.691Z,96765.57
2019-04-06T02:02:51.951Z,96766.24
2019-04-06T02:03:55.589Z,96765.22
2019-04-06T02:04:59.306Z,96777.50
2019-04-06T02:06:03.416Z,96775.97
2019-04-06T02:07:07.037Z,96772.97
2019-04-06T02:08:10.729Z,96776.63
2019-04-06T02:09:14.366Z,96777.22
2019-04-06T02:10:18.287Z,96777.22
2019-04-06T02:11:22.317Z,96775.38
2019-04-06T02:12:25.936Z,96775.38
2019-04-06T02:13:29.707Z,96775.45
2019-04-06T02:14:33.348Z,96778.45
2019-04-06T02:15:36.961Z,96777.07
2019-04-06T02:16:40.921Z,96777.73
2019-04-06T02:17:44.758Z,96777.73
2019-04-06T02:18:48.405Z,96778.28
2019-04-06T02:19:52.022Z,96777.19
2019-04-06T02:20:55.756Z,96777.19
2019-04-06T02:21:59.381Z,96770.14
2019-04-06T02:23:03.071Z,96772.61
2019-04-06T02:24:06.842Z,96773.95
2019-04-06T02:25:10.749Z,96773.95
2019-04-06T02:26:14.306Z,96773.95
2019-04-06T02:27:17.936Z,96767.63
2019-04-06T02:28:21.441Z,96767.06
2019-04-06T02:29:25.389Z,96769.39
2019-04-06T02:30:30.662Z,96767.81
2019-04-06T02:31:44.703Z,96767.81
2019-04-06T02:32:56.252Z,96775.97
2019-04-06T02:34:04.505Z,96773.84
2019-04-06T02:35:21.915Z,96773.05
2019-04-06T02:36:36.379Z,96773.05
2019-04-06T02:37:44.345Z,96777.07
2019-04-06T02:38:53.165Z,96765.61
2019-04-06T02:39:58.466Z,96778.80
2019-04-06T02:41:06.663Z,96778.80
2019-04-06T02:42:21.249Z,96774.78
2019-04-06T02:43:26.553Z,96773.59
2019-04-06T02:44:30.181Z,96773.59
2019-04-06T02:45:33.808Z,96781.66
2019-04-06T02:46:37.581Z,96780.33
2019-04-06T02:47:41.377Z,96782.77
2019-04-06T02:48:45.093Z,96782.77
2019-04-06T02:49:48.975Z,96780.09
2019-04-06T02:50:52.768Z,96784.36
2019-04-06T02:51:56.528Z,96784.36
2019-04-06T02:53:00.263Z,96785.14
2019-04-06T02:54:03.904Z,96789.44
2019-04-06T02:55:07.639Z,96789.44
2019-04-06T02:56:11.582Z,96784.17
2019-04-06T02:57:15.362Z,96783.62
2019-04-06T02:58:18.985Z,96790.23
2019-04-06T02:59:22.727Z,96785.42
2019-04-06T03:00:26.691Z,96788.97
2019-04-06T03:01:30.387Z,96786.30
2019-04-06T03:02:34.130Z,96788.19
2019-04-06T03:03:37.776Z,96778.70
2019-04-06T03:04:41.449Z,96786.72
2019-04-06T03:05:45.089Z,96788.92
2019-04-06T03:06:48.736Z,96791.96
2019-04-06T03:07:52.499Z,96792.98
2019-04-06T03:08:56.151Z,96792.98
2019-04-06T03:09:59.801Z,96786.17
2019-04-06T03:11:03.457Z,96785.23
2019-04-06T03:12:07.106Z,96785.23
2019-04-06T03:13:10.936Z,96784.23
2019-04-06T03:14:15.380Z,96789.23
2019-04-06T03:15:18.987Z,96776.84
2019-04-06T03:16:22.649Z,96776.84
2019-04-06T03:17:26.309Z,96788.80
2019-04-06T03:18:30.391Z,96790.38
2019-04-06T03:19:34.074Z,96790.38
2019-04-06T03:20:37.720Z,96794.94
2019-04-06T03:21:41.366Z,96791.16
2019-04-06T03:22:45.030Z,96791.16
2019-04-06T03:23:51.254Z,96796.50
2019-04-06T03:24:54.062Z,96794.94
2019-04-06T03:25:57.831Z,96800.36
2019-04-06T03:27:02.829Z,96801.14
2019-04-06T03:28:07.050Z,96800.91
2019-04-06T03:29:10.715Z,96798.58
2019-04-06T03:30:14.658Z,96798.58
2019-04-06T03:31:23.407Z,96800.47
2019-04-06T03:32:23.674Z,96797.56
2019-04-06T03:33:27.240Z,96798.16
2019-04-06T03:34:31.373Z,96790.57
2019-04-06T03:35:35.346Z,96793.95
2019-04-06T03:36:38.981Z,96790.16
2019-04-06T03:37:42.725Z,96791.32
2019-04-06T03:38:46.386Z,96791.08
2019-04-06T03:39:50.040Z,96794.64
2019-04-06T03:40:53.680Z,96793.88
2019-04-06T03:41:57.577Z,96797.98
2019-04-06T03:43:01.406Z,96791.47
2019-04-06T03:44:05.302Z,96794.59
2019-04-06T03:45:08.962Z,96790.75
2019-04-06T03:46:12.637Z,96793.03
2019-04-06T03:47:16.277Z,96799.17
2019-04-06T03:48:20.079Z,96798.00
2019-04-06T03:49:23.737Z,96792.87
2019-04-06T03:50:27.398Z,96789.02
2019-04-06T03:51:31.050Z,96796.09
2019-04-06T03:52:34.716Z,96790.30
2019-04-06T03:53:39.093Z,96802.70
2019-04-06T03:54:42.732Z,96800.17
2019-04-06T03:55:46.296Z,96799.72
2019-04-06T03:56:49.960Z,96805.22
2019-04-06T03:57:53.614Z,96803.49
2019-04-06T03:58:57.503Z,96804.50
2019-04-06T04:00:01.574Z,96812.42
2019-04-06T04:01:05.425Z,96807.97
2019-04-06T04:02:09.068Z,96814.94
2019-04-06T04:03:12.687Z,96813.66
2019-04-06T04:04:16.568Z,96812.99
2019-04-06T04:05:20.268Z,96810.86
2019-04-06T04:06:23.930Z,96807.94
2019-04-06T04:07:27.655Z,96813.50
2019-04-06T04:08:31.346Z,96808.30
2019-04-06T04:09:35.086Z,96820.70
2019-04-06T04:10:39.726Z,96815.39
2019-04-06T04:11:43.642Z,96823.10
2019-04-06T04:12:47.379Z,96826.47
2019-04-06T04:13:51.031Z,96820.92
2019-04-06T04:14:54.838Z,96823.95
2019-04-06T04:15:58.565Z,96826.86
2019-04-06T04:17:02.423Z,96828.98
2019-04-06T04:18:08.953Z,96832.98
2019-04-06T04:19:12.856Z,96829.52
2019-04-06T04:20:19.483Z,96831.80
2019-04-06T04:21:23.168Z,96832.99
2019-04-06T04:22:30.490Z,96831.05
2019-04-06T04:23:34.247Z,96832.94
2019-04-06T04:24:38.457Z,96837.03
2019-04-06T04:25:42.144Z,96833.03
2019-04-06T04:26:46.124Z,96840.98
2019-04-06T04:27:49.933Z,96837.83
2019-04-06T04:28:53.811Z,96837.83
2019-04-06T04:29:57.580Z,96842.67
2019-04-06T04:31:01.436Z,96840.80
2019-04-06T04:32:05.167Z,96843.16
2019-04-06T04:33:08.795Z,96840.73
2019-04-06T04:34:12.579Z,96839.41
2019-04-06T04:35:18.555Z,96839.10
2019-04-06T04:36:21.701Z,96845.86
2019-04-06T04:37:25.349Z,96848.93
2019-04-06T04:38:29.472Z,96848.05
2019-04-06T04:39:33.575Z,96845.08
2019-04-06T04:40:37.207Z,96852.45
2019-04-06T04:41:40.848Z,96851.80
2019-04-06T04:42:44.491Z,96854.47
2019-04-06T04:43:48.280Z,96856.35
2019-04-06T04:44:51.972Z,96861.54
2019-04-06T04:45:55.570Z,96859.66
2019-04-06T04:46:59.360Z,96858.42
2019-04-06T04:48:03.169Z,96856.84
2019-04-06T04:49:07.115Z,96857.94
2019-04-06T04:50:11.466Z,96860.84
2019-04-06T04:51:15.181Z,96860.05
2019-04-06T04:52:18.844Z,96857.54
2019-04-06T04:53:23.563Z,96856.84
2019-04-06T04:54:27.207Z,96852.20
2019-04-06T04:55:30.964Z,96861.33
2019-04-06T04:56:34.603Z,96852.45
2019-04-06T04:57:41.183Z,96854.97
2019-04-06T04:58:43.690Z,96855.91
2019-04-06T04:59:47.599Z,96854.90
2019-04-06T05:00:51.370Z,96861.33
2019-04-06T05:01:55.086Z,96859.14
2019-04-06T05:02:58.714Z,96852.38
2019-04-06T05:04:02.355Z,96845.56
2019-04-06T05:05:09.291Z,96849.80
2019-04-06T05:06:12.417Z,96858.27
2019-04-06T05:07:16.274Z,96855.23
2019-04-06T05:08:19.956Z,96856.38
2019-04-06T05:09:23.579Z,96854.34
2019-04-06T05:10:27.215Z,96858.20
2019-04-06T05:11:30.950Z,96861.73
2019-04-06T05:12:34.622Z,96856.95
2019-04-06T05:13:38.278Z,96857.80
2019-04-06T05:15:01.378Z,96859.70
2019-04-06T05:16:12.881Z,96862.44
2019-04-06T05:17:16.911Z,96863.47
2019-04-06T05:18:20.591Z,96858.98
2019-04-06T05:19:24.155Z,96866.13
2019-04-06T05:20:27.938Z,96856.55
2019-04-06T05:21:31.789Z,96856.78
2019-04-06T05:22:35.505Z,96857.48
2019-04-06T05:23:39.262Z,96860.63
2019-04-06T05:24:42.895Z,96862.98
2019-04-06T05:25:46.530Z,96864.34
2019-04-06T05:26:50.209Z,96861.63
2019-04-06T05:27:53.905Z,96866.59
2019-04-06T05:28:57.723Z,96868.61
2019-04-06T05:30:01.313Z,96859.70
2019-04-06T05:31:05.227Z,96864.39
2019-04-06T05:32:09.024Z,96867.68
2019-04-06T05:33:12.723Z,96872.72
2019-04-06T05:34:16.347Z,96868.75
2019-04-06T05:35:20.009Z,96870.16
2019-04-06T05:36:23.660Z,96874.36
2019-04-06T05:37:27.377Z,96875.94
2019-04-06T05:38:31.010Z,96872.21
2019-04-06T05:39:34.694Z,96869.92
2019-04-06T05:40:38.281Z,96873.78
2019-04-06T05:41:41.931Z,96866.42
2019-04-06T05:42:45.990Z,96871.05
2019-04-06T05:43:49.636Z,96871.59
2019-04-06T05:44:53.300Z,96871.05
2019-04-06T05:45:57.021Z,96873.72
2019-04-06T05:47:00.856Z,96868.03
2019-04-06T05:48:04.930Z,96873.31
2019-04-06T05:49:08.726Z,96874.30
2019-04-06T05:50:12.481Z,96873.61
2019-04-06T05:51:16.144Z,96877.45
2019-04-06T05:52:19.958Z,96872.72
2019-04-06T05:53:23.714Z,96874.02
2019-04-06T05:54:27.371Z,96871.83
2019-04-06T05:55:31.033Z,96872.26
2019-04-06T05:56:34.887Z,96878.04
2019-04-06T05:57:38.587Z,96876.78
2019-04-06T05:58:44.239Z,96870.58
2019-04-06T05:59:47.437Z,96872.33
2019-04-06T06:00:51.187Z,96877.86
2019-04-06T06:01:54.838Z,96873.54
2019-04-06T06:02:58.591Z,96879.94
2019-04-06T06:04:02.250Z,96874.90
2019-04-06T06:05:06.114Z,96881.20
2019-04-06T06:06:12.335Z,96878.00
2019-04-06T06:07:15.147Z,96879.52
2019-04-06T06:08:18.873Z,96879.26
2019-04-06T06:09:22.510Z,96883.09
2019-04-06T06:10:26.629Z,96875.19
2019-04-06T06:11:30.627Z,96875.37
2019-04-06T06:12:34.637Z,96876.40
2019-04-06T06:13:39.430Z,96878.13
2019-04-06T06:14:43.385Z,96879.07
2019-04-06T06:15:47.031Z,96880.83
2019-04-06T06:16:50.698Z,96872.20
2019-04-06T06:17:54.537Z,96881.35
2019-04-06T06:18:58.395Z,96880.38
2019-04-06T06:20:02.099Z,96881.13
2019-04-06T06:21:05.721Z,96878.35
2019-04-06T06:22:11.795Z,96878.96
2019-04-06T06:23:18.447Z,96878.96
2019-04-06T06:24:22.113Z,96882.88
2019-04-06T06:25:27.851Z,96882.73
2019-04-06T06:26:31.177Z,96882.73
2019-04-06T06:27:35.036Z,96873.43
2019-04-06T06:28:42.360Z,96872.83
2019-04-06T06:29:46.023Z,96876.03
2019-04-06T06:30:49.719Z,96877.20
2019-04-06T06:31:53.367Z,96869.64
2019-04-06T06:32:57.001Z,96876.58
2019-04-06T06:34:00.732Z,96876.39
2019-04-06T06:35:05.284Z,96872.66
2019-04-06T06:36:08.958Z,96878.30
2019-04-06T06:37:12.802Z,96871.65
2019-04-06T06:38:16.434Z,96869.61
2019-04-06T06:39:20.095Z,96869.09
2019-04-06T06:40:23.779Z,96868.09
2019-04-06T06:41:27.427Z,96870.88
2019-04-06T06:42:31.173Z,96872.22
2019-04-06T06:43:34.839Z,96870.46
2019-04-06T06:44:38.487Z,96864.38
2019-04-06T06:45:43.673Z,96864.03
2019-04-06T06:46:47.424Z,96864.03
2019-04-06T06:47:51.080Z,96864.28
2019-04-06T06:48:55.105Z,96864.28
2019-04-06T06:49:58.745Z,96867.97
2019-04-06T06:51:02.408Z,96867.97
2019-04-06T06:52:06.091Z,96859.25
2019-04-06T06:53:09.745Z,96857.45
2019-04-06T06:54:13.400Z,96857.45
2019-04-06T06:55:17.190Z,96859.55
2019-04-06T06:56:20.861Z,96859.23
2019-04-06T06:57:24.564Z,96859.23
2019-04-06T06:58:28.227Z,96857.50
2019-04-06T06:59:31.865Z,96853.45
2019-04-06T07:00:35.533Z,96859.86
2019-04-06T07:01:39.237Z,96856.73
2019-04-06T07:02:42.977Z,96861.08
2019-04-06T07:03:46.632Z,96861.52
2019-04-06T07:04:50.321Z,96858.92
2019-04-06T07:05:54.153Z,96858.66
2019-04-06T07:06:57.921Z,96862.61
2019-04-06T07:08:01.571Z,96864.07
2019-04-06T07:09:07.655Z,96860.88
2019-04-06T07:10:11.508Z,96859.00
2019-04-06T07:11:15.101Z,96856.91
2019-04-06T07:12:18.953Z,96862.05
2019-04-06T07:13:22.630Z,96857.19
2019-04-06T07:14:26.271Z,96859.31
2019-04-06T07:15:29.982Z,96859.84
2019-04-06T07:16:33.719Z,96858.98
2019-04-06T07:17:37.408Z,96860.91
2019-04-06T07:18:41.059Z,96858.66
2019-04-06T07:19:44.863Z,96856.45
2019-04-06T07:20:48.591Z,96853.20
2019-04-06T07:21:52.289Z,96851.72
2019-04-06T07:22:56.005Z,96855.88
2019-04-06T07:23:59.646Z,96857.61
2019-04-06T07:25:03.279Z,96853.31
2019-04-06T07:26:07.010Z,96856.64
2019-04-06T07:27:11.022Z,96858.63
2019-04-06T07:28:14.692Z,96855.55
2019-04-06T07:29:18.338Z,96856.26
2019-04-06T07:30:22.447Z,96850.04
2019-04-06T07:31:26.068Z,96858.42
2019-04-06T07:32:29.760Z,96851.02
2019-04-06T07:33:33.399Z,96851.42
2019-04-06T07:34:37.171Z,96851.61
2019-04-06T07:35:40.815Z,96853.14
2019-04-06T07:36:44.451Z,96851.13
2019-04-06T07:37:48.153Z,96851.76
2019-04-06T07:38:51.865Z,96850.19
2019-04-06T07:39:55.496Z,96845.27
2019-04-06T07:40:59.235Z,96846.72
2019-04-06T07:42:03.084Z,96846.73
2019-04-06T07:43:06.783Z,96830.34
2019-04-06T07:44:10.500Z,96830.34
2019-04-06T07:45:14.760Z,96836.55
2019-04-06T07:46:18.487Z,96836.44
2019-04-06T07:47:22.179Z,96837.55
2019-04-06T07:48:26.027Z,96834.25
2019-04-06T07:49:29.670Z,96828.36
2019-04-06T07:50:33.340Z,96829.02
2019-04-06T07:51:36.997Z,96823.61
2019-04-06T07:52:40.978Z,96826.64
2019-04-06T07:53:44.973Z,96827.75
2019-04-06T07:54:48.603Z,96826.12
2019-04-06T07:55:52.254Z,96822.13
2019-04-06T07:56:55.918Z,96819.15
2019-04-06T07:57:59.593Z,96824.96
2019-04-06T07:59:03.211Z,96822.26
2019-04-06T08:00:11.133Z,96817.23
2019-04-06T08:01:14.791Z,96819.05
2019-04-06T08:02:18.540Z,96815.82
2019-04-06T08:03:22.215Z,96816.67
2019-04-06T08:04:25.946Z,96818.00
2019-04-06T08:05:29.918Z,96811.22
2019-04-06T08:06:33.721Z,96810.54
2019-04-06T08:07:37.664Z,96814.98
2019-04-06T08:08:41.377Z,96807.72
2019-04-06T08:09:45.123Z,96809.00
2019-04-06T08:10:49.318Z,96810.30
2019-04-06T08:11:53.265Z,96815.13
2019-04-06T08:12:57.013Z,96818.98
2019-04-06T08:14:00.617Z,96817.02
2019-04-06T08:15:06.549Z,96820.13
2019-04-06T08:16:10.844Z,96817.97
2019-04-06T08:17:14.492Z,96819.16
2019-04-06T08:18:18.247Z,96817.02
2019-04-06T08:19:22.040Z,96811.34
2019-04-06T08:20:25.835Z,96817.00
2019-04-06T08:21:29.500Z,96811.00
2019-04-06T08:22:33.147Z,96809.84
2019-04-06T08:23:36.802Z,96808.31
2019-04-06T08:24:40.532Z,96811.20
2019-04-06T08:25:45.219Z,96812.70
2019-04-06T08:26:48.897Z,96808.02
2019-04-06T08:27:52.780Z,96809.17
2019-04-06T08:29:01.947Z,96812.37
2019-04-06T08:30:01.990Z,96803.98
2019-04-06T08:31:05.724Z,96807.42
2019-04-06T08:32:09.401Z,96803.35
2019-04-06T08:33:13.071Z,96802.75
2019-04-06T08:34:18.215Z,96802.73
2019-04-06T08:35:26.182Z,96800.03
2019-04-06T08:36:27.190Z,96803.38
2019-04-06T08:37:31.290Z,96797.48
2019-04-06T08:38:34.968Z,96796.35
2019-04-06T08:39:38.657Z,96797.83
2019-04-06T08:40:42.348Z,96801.02
2019-04-06T08:41:46.002Z,96799.27
2019-04-06T08:42:49.628Z,96788.52
2019-04-06T08:43:53.280Z,96797.21
2019-04-06T08:44:57.206Z,96794.91
2019-04-06T08:46:00.859Z,96791.18
2019-04-06T08:47:04.494Z,96792.03
2019-04-06T08:48:08.034Z,96789.01
2019-04-06T08:49:11.698Z,96791.41
2019-04-06T08:50:15.447Z,96789.70
2019-04-06T08:51:19.102Z,96788.64
2019-04-06T08:52:22.755Z,96784.25
2019-04-06T08:53:26.452Z,96783.48
2019-04-06T08:54:30.026Z,96781.56
2019-04-06T08:55:33.693Z,96778.64
2019-04-06T08:56:37.705Z,96774.99
2019-04-06T08:57:41.416Z,96768.37
2019-04-06T08:58:45.092Z,96774.62
2019-04-06T08:59:48.684Z,96773.13
2019-04-06T09:00:52.653Z,96772.96
2019-04-06T09:01:56.280Z,96770.48
2019-04-06T09:02:59.935Z,96768.11
2019-04-06T09:04:04.025Z,96764.91
2019-04-06T09:05:07.792Z,96765.64
2019-04-06T09:06:11.444Z,96762.98
2019-04-06T09:07:15.092Z,96760.80
2019-04-06T09:08:18.745Z,96756.50
2019-04-06T09:09:22.453Z,96756.98
2019-04-06T09:10:26.175Z,96751.91
2019-04-06T09:11:29.868Z,96751.57
2019-04-06T09:12:33.458Z,96752.45
2019-04-06T09:13:37.040Z,96750.05
2019-04-06T09:14:40.732Z,96750.47
2019-04-06T09:15:44.390Z,96745.83
2019-04-06T09:16:47.963Z,96742.83
2019-04-06T09:17:51.741Z,96743.48
2019-04-06T09:18:55.430Z,96736.91
2019-04-06T09:19:59.312Z,96734.64
2019-04-06T09:21:02.986Z,96733.44
2019-04-06T09:22:06.645Z,96724.53
2019-04-06T09:23:10.375Z,96727.29
2019-04-06T09:24:14.269Z,96732.99
2019-04-06T09:25:18.145Z,96726.48
2019-04-06T09:26:21.713Z,96729.78
2019-04-06T09:27:25.364Z,96736.91
2019-04-06T09:28:29.026Z,96730.26
2019-04-06T09:29:32.864Z,96716.06
2019-04-06T09:30:36.708Z,96712.41
2019-04-06T09:31:40.385Z,96717.26
2019-04-06T09:32:44.121Z,96711.72
2019-04-06T09:33:47.819Z,96713.44
2019-04-06T09:34:51.482Z,96710.48
2019-04-06T09:35:55.229Z,96712.30
2019-04-06T09:36:58.941Z,96711.19
2019-04-06T09:38:04.146Z,96698.64
2019-04-06T09:39:07.838Z,96701.92
2019-04-06T09:40:11.769Z,96704.31
2019-04-06T09:41:15.449Z,96699.83
2019-04-06T09:42:19.089Z,96701.34
2019-04-06T09:43:22.813Z,96699.53
2019-04-06T09:44:40.949Z,96702.13
2019-04-06T09:45:46.481Z,96693.42
2019-04-06T09:47:10.283Z,96698.25
2019-04-06T09:48:18.418Z,96700.67
2019-04-06T09:49:39.926Z,96694.05
2019-04-06T09:51:01.093Z,96696.41
2019-04-06T09:52:06.372Z,96689.83
2019-04-06T09:53:17.843Z,96686.75
2019-04-06T09:54:38.425Z,96682.06
2019-04-06T09:55:55.547Z,96677.61
2019-04-06T09:57:03.846Z,96681.33
2019-04-06T09:58:15.395Z,96672.63
2019-04-06T09:59:34.874Z,96667.48
2019-04-06T10:00:34.225Z,96673.77
2019-04-06T10:01:39.727Z,96671.39
2019-04-06T10:02:45.014Z,96669.75
2019-04-06T10:03:56.380Z,96663.89
2019-04-06T10:05:07.517Z,96670.94
2019-04-06T10:06:32.424Z,96660.34
2019-04-06T10:07:43.593Z,96668.33
2019-04-06T10:08:57.185Z,96658.94
2019-04-06T10:10:02.806Z,96653.73
2019-04-06T10:11:08.437Z,96669.41
2019-04-06T10:12:32.317Z,96665.75
2019-04-06T10:13:37.598Z,96659.70
2019-04-06T10:14:45.590Z,96663.55
2019-04-06T10:15:56.964Z,96658.92
2019-04-06T10:17:11.320Z,96661.66
2019-04-06T10:18:19.265Z,96671.00
2019-04-06T10:19:42.744Z,96665.92
2019-04-06T10:20:51.047Z,96661.20
2019-04-06T10:21:56.391Z,96652.63
2019-04-06T10:23:01.753Z,96654.08
2019-04-06T10:24:19.120Z,96657.55
2019-04-06T10:25:39.478Z,96655.61
2019-04-06T10:26:48.326Z,96660.13
2019-04-06T10:27:56.243Z,96655.14
2019-04-06T10:29:04.429Z,96657.15
2019-04-06T10:30:22.430Z,96656.75
2019-04-06T10:31:27.725Z,96652.85
2019-04-06T10:32:48.867Z,96656.02
2019-04-06T10:33:54.080Z,96655.44
2019-04-06T10:35:02.173Z,96653.67
2019-04-06T10:36:24.871Z,96656.75
2019-04-06T10:37:45.238Z,96656.31
2019-04-06T10:38:56.286Z,96650.41
2019-04-06T10:40:01.556Z,96661.27
2019-04-06T10:41:06.861Z,96656.53
2019-04-06T10:42:12.414Z,96651.12
2019-04-06T10:43:27.360Z,96649.59
2019-04-06T10:44:32.727Z,96651.14
2019-04-06T10:45:43.848Z,96650.78
2019-04-06T10:46:49.166Z,96651.36
2019-04-06T10:48:06.633Z,96642.69
2019-04-06T10:49:27.556Z,96647.50
2019-04-06T10:50:44.733Z,96647.71
2019-04-06T10:52:06.331Z,96648.44
2019-04-06T10:53:20.856Z,96652.00
2019-04-06T10:54:34.513Z,96651.37
2019-04-06T10:55:39.852Z,96646.02
2019-04-06T10:56:45.426Z,96639.80
2019-04-06T10:57:50.733Z,96648.73
2019-04-06T10:59:15.261Z,96645.11
2019-04-06T11:00:23.758Z,96646.13
2019-04-06T11:01:29.037Z,96641.17
2019-04-06T11:02:47.242Z,96638.35
2019-04-06T11:03:52.535Z,96636.11
2019-04-06T11:04:58.217Z,96638.46
2019-04-06T11:06:06.171Z,96638.93
2019-04-06T11:07:30.179Z,96635.63
2019-04-06T11:08:47.855Z,96634.56
2019-04-06T11:09:59.143Z,96629.08
2019-04-06T11:11:04.559Z,96632.48
2019-04-06T11:12:19.404Z,96632.06
2019-04-06T11:13:30.612Z,96628.34
2019-04-06T11:14:36.551Z,96624.89
2019-04-06T11:15:44.819Z,96633.39
2019-04-06T11:17:17.847Z,96622.75
2019-04-06T11:18:29.249Z,96627.52
2019-04-06T11:19:49.629Z,96626.25
2019-04-06T11:21:10.122Z,96629.74
2019-04-06T11:22:33.885Z,96625.59
2019-04-06T11:23:55.195Z,96620.36
2019-04-06T11:25:15.666Z,96618.84
2019-04-06T11:26:39.343Z,96622.11
2019-04-06T11:27:47.247Z,96615.61
2019-04-06T11:29:10.828Z,96618.55
2019-04-06T11:30:19.192Z,96614.38
2019-04-06T11:31:40.666Z,96615.03
2019-04-06T11:32:51.855Z,96611.79
2019-04-06T11:34:12.512Z,96610.50
2019-04-06T11:35:32.366Z,96612.56
2019-04-06T11:36:50.022Z,96606.92
2019-04-06T11:37:57.874Z,96598.07
2019-04-06T11:39:22.433Z,96605.18
2019-04-06T11:40:44.153Z,96595.44
2019-04-06T11:42:01.424Z,96598.06
2019-04-06T11:43:31.148Z,96593.67
2019-04-06T11:44:48.905Z,96600.38
2019-04-06T11:46:13.118Z,96597.38
2019-04-06T11:47:18.588Z,96584.14
2019-04-06T11:48:23.928Z,96583.33
2019-04-06T11:49:32.212Z,96586.55
2019-04-06T11:50:55.836Z,96579.23
2019-04-06T11:52:16.276Z,96584.45
2019-04-06T11:53:27.277Z,96579.02
2019-04-06T11:54:32.609Z,96578.55
2019-04-06T11:55:54.107Z,96579.72
2019-04-06T11:57:05.448Z,96579.94
2019-04-06T11:58:23.055Z,96572.67
2019-04-06T11:59:29.079Z,96576.23
2019-04-06T12:00:50.606Z,96583.94
2019-04-06T12:02:04.816Z,96577.13
2019-04-06T12:03:16.075Z,96577.55
2019-04-06T12:04:38.001Z,96568.01
2019-04-06T12:05:49.200Z,96571.17
2019-04-06T12:07:03.395Z,96569.17
2019-04-06T12:08:08.906Z,96566.80
2019-04-06T12:09:19.774Z,96571.09
2019-04-06T12:10:25.079Z,96561.45
2019-04-06T12:11:42.464Z,96565.63
2019-04-06T12:12:55.696Z,96560.27
2019-04-06T12:14:16.505Z,96560.47
2019-04-06T12:15:36.835Z,96557.17
2019-04-06T12:16:42.207Z,96556.91
2019-04-06T12:18:06.006Z,96559.92
2019-04-06T12:19:11.347Z,96555.06
2019-04-06T12:20:32.882Z,96556.73
2019-04-06T12:21:38.616Z,96547.73
2019-04-06T12:22:43.993Z,96556.03
2019-04-06T12:23:58.160Z,96546.41
2019-04-06T12:25:19.823Z,96553.40
2019-04-06T12:26:43.319Z,96543.95
2019-04-06T12:28:04.942Z,96546.02
2019-04-06T12:29:26.529Z,96542.56
2019-04-06T12:30:38.477Z,96543.92
2019-04-06T12:31:47.681Z,96540.44
2019-04-06T12:32:52.961Z,96540.77
2019-04-06T12:34:00.799Z,96536.14
2019-04-06T12:35:07.837Z,96527.36
2019-04-06T12:36:16.113Z,96529.66
2019-04-06T12:37:21.764Z,96534.47
2019-04-06T12:38:45.806Z,96525.39
2019-04-06T12:39:54.736Z,96527.95
2019-04-06T12:41:12.283Z,96526.44
2019-04-06T12:42:17.478Z,96522.36
2019-04-06T12:43:34.770Z,96518.95
2019-04-06T12:44:40.045Z,96517.90
2019-04-06T12:45:51.445Z,96517.56
2019-04-06T12:47:03.024Z,96514.86
2019-04-06T12:48:08.296Z,96515.19
2019-04-06T12:49:16.705Z,96517.20
2019-04-06T12:50:24.697Z,96506.75
2019-04-06T12:51:30.060Z,96506.59
2019-04-06T12:52:44.722Z,96511.22
2019-04-06T12:54:02.570Z,96511.88
2019-04-06T12:55:17.291Z,96512.84
2019-04-06T12:56:28.673Z,96501.04